Terminal Aerodrome Forecast
Issued by NWS Jackson, KY

Home | Current Version | Previous Version | Text Only | Print | Product List | Glossary On
Versions: 1 2 3 4 5 6 7 8 9 10 11 12 13 14 15 16 17
000
FTUS43 KJKL 111738
TAFJKL
TAF
KJKL 111738Z 1118/1218 VRB05KT P6SM FEW250
     FM120700 26008KT 5SM -DZSN BR SCT025 BKN060
     FM120900 26008KT 5SM -SHSNRA BR SCT015 BKN025
     FM121100 27010G20KT 5SM -SHSN SCT008 OVC015
     FM121600 29010G20KT P6SM OVC030=

USA.gov is the U.S. government's official web portal to all federal, state and local government web resources and services.